sensor_id;sensor_type;location;lat;lon;timestamp;pressure;altitude;pressure_sealevel;temperature;humidity
74343;BME280;62767;50.300;8.070;2024-02-26T00:02:16;98142.72;;;20.03;40.02
74343;BME280;62767;50.300;8.070;2024-02-26T00:04:42;98139.44;;;20.01;39.98
74343;BME280;62767;50.300;8.070;2024-02-26T00:07:08;98134.75;;;19.97;39.99
74343;BME280;62767;50.300;8.070;2024-02-26T00:09:33;98135.94;;;19.94;39.99
74343;BME280;62767;50.300;8.070;2024-02-26T00:12:02;98128.78;;;19.88;40.27
74343;BME280;62767;50.300;8.070;2024-02-26T00:14:29;98120.41;;;19.85;40.26
74343;BME280;62767;50.300;8.070;2024-02-26T00:16:55;98115.31;;;19.83;40.20
74343;BME280;62767;50.300;8.070;2024-02-26T00:19:21;98118.53;;;19.79;40.16
74343;BME280;62767;50.300;8.070;2024-02-26T00:21:46;98114.09;;;19.79;40.24
74343;BME280;62767;50.300;8.070;2024-02-26T00:24:12;98104.28;;;19.73;40.32
74343;BME280;62767;50.300;8.070;2024-02-26T00:26:37;98107.09;;;19.71;40.31
74343;BME280;62767;50.300;8.070;2024-02-26T00:29:03;98094.31;;;19.68;40.48
74343;BME280;62767;50.300;8.070;2024-02-26T00:31:28;98086.19;;;19.70;40.20
74343;BME280;62767;50.300;8.070;2024-02-26T00:33:54;98079.28;;;19.69;40.16
74343;BME280;62767;50.300;8.070;2024-02-26T00:36:19;98069.09;;;19.66;40.22
74343;BME280;62767;50.300;8.070;2024-02-26T00:38:45;98061.56;;;19.63;40.29
74343;BME280;62767;50.300;8.070;2024-02-26T00:41:16;98062.94;;;19.59;40.40
74343;BME280;62767;50.300;8.070;2024-02-26T00:43:42;98051.34;;;19.53;40.50
74343;BME280;62767;50.300;8.070;2024-02-26T00:46:08;98053.38;;;19.51;40.56
74343;BME280;62767;50.300;8.070;2024-02-26T00:48:33;98063.00;;;19.44;40.52
74343;BME280;62767;50.300;8.070;2024-02-26T00:50:58;98068.84;;;19.40;40.67
74343;BME280;62767;50.300;8.070;2024-02-26T00:53:24;98056.59;;;19.32;40.80
74343;BME280;62767;50.300;8.070;2024-02-26T00:55:50;98058.81;;;19.28;40.91
74343;BME280;62767;50.300;8.070;2024-02-26T00:58:16;98065.66;;;19.23;40.96
74343;BME280;62767;50.300;8.070;2024-02-26T01:00:42;98063.38;;;19.20;41.11
74343;BME280;62767;50.300;8.070;2024-02-26T01:03:07;98066.22;;;19.18;41.06
74343;BME280;62767;50.300;8.070;2024-02-26T01:05:33;98059.50;;;19.16;41.06
74343;BME280;62767;50.300;8.070;2024-02-26T01:07:59;98039.59;;;19.13;41.15
74343;BME280;62767;50.300;8.070;2024-02-26T01:10:24;98051.34;;;19.11;41.40
74343;BME280;62767;50.300;8.070;2024-02-26T01:12:50;98050.53;;;19.10;41.02
74343;BME280;62767;50.300;8.070;2024-02-26T01:15:15;98044.78;;;19.07;41.20
74343;BME280;62767;50.300;8.070;2024-02-26T01:17:41;98050.06;;;19.07;41.17
74343;BME280;62767;50.300;8.070;2024-02-26T01:20:07;98053.72;;;19.06;41.20
74343;BME280;62767;50.300;8.070;2024-02-26T01:22:34;98047.81;;;19.04;41.20
74343;BME280;62767;50.300;8.070;2024-02-26T01:24:59;98053.28;;;19.02;41.30
74343;BME280;62767;50.300;8.070;2024-02-26T01:27:25;98064.81;;;19.01;41.37
74343;BME280;62767;50.300;8.070;2024-02-26T01:29:52;98051.03;;;18.99;41.23
74343;BME280;62767;50.300;8.070;2024-02-26T01:32:18;98053.84;;;18.98;41.39
74343;BME280;62767;50.300;8.070;2024-02-26T01:34:43;98057.66;;;18.95;41.32
74343;BME280;62767;50.300;8.070;2024-02-26T01:37:09;98049.75;;;18.95;41.45
74343;BME280;62767;50.300;8.070;2024-02-26T01:39:34;98062.31;;;18.93;41.29
74343;BME280;62767;50.300;8.070;2024-02-26T01:42:01;98065.94;;;18.92;41.39
74343;BME280;62767;50.300;8.070;2024-02-26T01:44:26;98069.59;;;18.91;41.35
74343;BME280;62767;50.300;8.070;2024-02-26T01:46:52;98064.31;;;18.91;41.40
74343;BME280;62767;50.300;8.070;2024-02-26T01:49:18;98061.84;;;18.89;41.45
74343;BME280;62767;50.300;8.070;2024-02-26T01:51:45;98051.53;;;18.88;41.36
74343;BME280;62767;50.300;8.070;2024-02-26T01:54:11;98057.59;;;18.88;41.31
74343;BME280;62767;50.300;8.070;2024-02-26T01:56:38;98038.94;;;18.90;41.44
74343;BME280;62767;50.300;8.070;2024-02-26T01:59:05;98049.06;;;18.86;41.57
74343;BME280;62767;50.300;8.070;2024-02-26T02:01:32;98043.78;;;18.86;41.58
74343;BME280;62767;50.300;8.070;2024-02-26T02:03:59;98039.75;;;18.90;41.53
74343;BME280;62767;50.300;8.070;2024-02-26T02:06:25;98042.47;;;18.97;41.46
74343;BME280;62767;50.300;8.070;2024-02-26T02:08:54;98052.69;;;19.07;41.15
74343;BME280;62767;50.300;8.070;2024-02-26T02:11:20;98049.31;;;19.13;40.81
74343;BME280;62767;50.300;8.070;2024-02-26T02:13:46;98052.84;;;19.20;40.66
74343;BME280;62767;50.300;8.070;2024-02-26T02:16:12;98063.63;;;19.25;40.63
74343;BME280;62767;50.300;8.070;2024-02-26T02:18:37;98067.56;;;19.29;40.53
74343;BME280;62767;50.300;8.070;2024-02-26T02:21:03;98059.06;;;19.33;40.45
74343;BME280;62767;50.300;8.070;2024-02-26T02:23:29;98075.13;;;19.39;40.22
74343;BME280;62767;50.300;8.070;2024-02-26T02:25:56;98061.38;;;19.43;40.01
74343;BME280;62767;50.300;8.070;2024-02-26T02:28:22;98067.75;;;19.49;40.18
74343;BME280;62767;50.300;8.070;2024-02-26T02:30:48;98063.53;;;19.54;40.27
74343;BME280;62767;50.300;8.070;2024-02-26T02:33:15;98063.75;;;19.59;40.08
74343;BME280;62767;50.300;8.070;2024-02-26T02:35:41;98051.63;;;19.65;39.98
74343;BME280;62767;50.300;8.070;2024-02-26T02:38:07;98052.91;;;19.69;39.98
74343;BME280;62767;50.300;8.070;2024-02-26T02:40:32;98062.88;;;19.73;39.88
74343;BME280;62767;50.300;8.070;2024-02-26T02:42:58;98060.66;;;19.77;39.81
74343;BME280;62767;50.300;8.070;2024-02-26T02:45:24;98065.16;;;19.83;39.79
74343;BME280;62767;50.300;8.070;2024-02-26T02:47:49;98061.34;;;19.86;39.67
74343;BME280;62767;50.300;8.070;2024-02-26T02:50:14;98076.59;;;19.90;39.65
74343;BME280;62767;50.300;8.070;2024-02-26T02:52:40;98072.75;;;19.93;39.50
74343;BME280;62767;50.300;8.070;2024-02-26T02:55:06;98089.03;;;19.96;39.66
74343;BME280;62767;50.300;8.070;2024-02-26T02:57:31;98080.09;;;19.97;39.68
74343;BME280;62767;50.300;8.070;2024-02-26T02:59:58;98086.22;;;19.98;39.48
74343;BME280;62767;50.300;8.070;2024-02-26T03:02:23;98093.91;;;19.99;39.37
74343;BME280;62767;50.300;8.070;2024-02-26T03:04:50;98093.09;;;19.99;39.59
74343;BME280;62767;50.300;8.070;2024-02-26T03:07:16;98100.22;;;19.98;39.44
74343;BME280;62767;50.300;8.070;2024-02-26T03:09:41;98097.78;;;19.97;39.57
74343;BME280;62767;50.300;8.070;2024-02-26T03:12:07;98097.13;;;19.95;39.41
74343;BME280;62767;50.300;8.070;2024-02-26T03:14:32;98092.03;;;19.93;39.59
74343;BME280;62767;50.300;8.070;2024-02-26T03:16:58;98088.78;;;19.91;39.61
74343;BME280;62767;50.300;8.070;2024-02-26T03:19:23;98090.81;;;19.89;39.46
74343;BME280;62767;50.300;8.070;2024-02-26T03:21:49;98096.09;;;19.89;39.54
74343;BME280;62767;50.300;8.070;2024-02-26T03:24:15;98094.66;;;19.87;39.58
74343;BME280;62767;50.300;8.070;2024-02-26T03:26:40;98093.63;;;19.88;39.38
74343;BME280;62767;50.300;8.070;2024-02-26T03:29:05;98091.81;;;19.88;39.45
74343;BME280;62767;50.300;8.070;2024-02-26T03:31:31;98089.75;;;19.84;39.82
74343;BME280;62767;50.300;8.070;2024-02-26T03:33:57;98089.38;;;19.87;40.27
74343;BME280;62767;50.300;8.070;2024-02-26T03:36:22;98091.84;;;19.95;40.44
74343;BME280;62767;50.300;8.070;2024-02-26T03:38:48;98089.84;;;19.97;40.03
74343;BME280;62767;50.300;8.070;2024-02-26T03:41:14;98091.50;;;20.04;39.84
74343;BME280;62767;50.300;8.070;2024-02-26T03:43:40;98090.38;;;20.13;39.63
74343;BME280;62767;50.300;8.070;2024-02-26T03:46:08;98086.53;;;20.23;39.36
74343;BME280;62767;50.300;8.070;2024-02-26T03:48:36;98081.75;;;19.98;38.68
74343;BME280;62767;50.300;8.070;2024-02-26T03:51:03;98081.38;;;20.08;39.18
74343;BME280;62767;50.300;8.070;2024-02-26T03:53:28;98091.53;;;20.32;39.35
74343;BME280;62767;50.300;8.070;2024-02-26T03:55:54;98093.44;;;20.51;39.30
74343;BME280;62767;50.300;8.070;2024-02-26T03:58:21;98099.19;;;20.68;39.10
74343;BME280;62767;50.300;8.070;2024-02-26T04:00:46;98096.44;;;20.83;38.94
74343;BME280;62767;50.300;8.070;2024-02-26T04:03:15;98098.69;;;20.92;38.87
74343;BME280;62767;50.300;8.070;2024-02-26T04:05:41;98095.66;;;21.02;38.94
74343;BME280;62767;50.300;8.070;2024-02-26T04:08:06;98097.84;;;20.85;38.60
74343;BME280;62767;50.300;8.070;2024-02-26T04:10:36;98095.84;;;20.94;38.92
74343;BME280;62767;50.300;8.070;2024-02-26T04:13:04;98086.94;;;21.02;38.93
74343;BME280;62767;50.300;8.070;2024-02-26T04:15:30;98095.28;;;21.05;38.81
74343;BME280;62767;50.300;8.070;2024-02-26T04:17:55;98102.00;;;21.08;39.03
74343;BME280;62767;50.300;8.070;2024-02-26T04:20:21;98092.66;;;21.12;38.99
74343;BME280;62767;50.300;8.070;2024-02-26T04:22:47;98101.78;;;21.09;39.06
74343;BME280;62767;50.300;8.070;2024-02-26T04:25:12;98096.13;;;21.12;38.97
74343;BME280;62767;50.300;8.070;2024-02-26T04:27:38;98105.88;;;21.12;38.98
74343;BME280;62767;50.300;8.070;2024-02-26T04:30:05;98103.63;;;21.09;39.30
74343;BME280;62767;50.300;8.070;2024-02-26T04:32:31;98098.56;;;21.07;39.47
74343;BME280;62767;50.300;8.070;2024-02-26T04:34:57;98103.22;;;21.05;39.51
74343;BME280;62767;50.300;8.070;2024-02-26T04:37:22;98108.50;;;21.05;39.40
74343;BME280;62767;50.300;8.070;2024-02-26T04:39:48;98105.03;;;21.05;39.42
74343;BME280;62767;50.300;8.070;2024-02-26T04:42:13;98104.03;;;21.06;39.46
74343;BME280;62767;50.300;8.070;2024-02-26T04:44:39;98101.56;;;21.04;39.73
74343;BME280;62767;50.300;8.070;2024-02-26T04:47:05;98104.22;;;21.04;39.74
74343;BME280;62767;50.300;8.070;2024-02-26T04:49:30;98105.66;;;21.07;39.77
74343;BME280;62767;50.300;8.070;2024-02-26T04:51:56;98108.91;;;21.09;39.52
74343;BME280;62767;50.300;8.070;2024-02-26T04:54:21;98105.69;;;21.13;39.54
74343;BME280;62767;50.300;8.070;2024-02-26T04:56:47;98108.59;;;21.18;39.50
74343;BME280;62767;50.300;8.070;2024-02-26T04:59:13;98112.63;;;21.21;39.55
74343;BME280;62767;50.300;8.070;2024-02-26T05:01:39;98109.59;;;21.24;39.85
74343;BME280;62767;50.300;8.070;2024-02-26T05:04:05;98108.38;;;21.26;39.68
74343;BME280;62767;50.300;8.070;2024-02-26T05:06:30;98111.66;;;21.28;39.62
74343;BME280;62767;50.300;8.070;2024-02-26T05:08:56;98103.09;;;21.26;39.84
74343;BME280;62767;50.300;8.070;2024-02-26T05:11:21;98112.81;;;21.13;39.96
74343;BME280;62767;50.300;8.070;2024-02-26T05:13:48;98109.69;;;21.03;40.13
74343;BME280;62767;50.300;8.070;2024-02-26T05:16:13;98106.44;;;20.94;40.29
74343;BME280;62767;50.300;8.070;2024-02-26T05:18:38;98103.56;;;20.89;40.36
74343;BME280;62767;50.300;8.070;2024-02-26T05:21:04;98109.88;;;20.88;39.99
74343;BME280;62767;50.300;8.070;2024-02-26T05:23:29;98103.34;;;20.84;40.02
74343;BME280;62767;50.300;8.070;2024-02-26T05:25:55;98103.31;;;20.77;40.08
74343;BME280;62767;50.300;8.070;2024-02-26T05:28:21;98115.31;;;20.73;40.20
74343;BME280;62767;50.300;8.070;2024-02-26T05:30:46;98109.78;;;20.68;40.23
74343;BME280;62767;50.300;8.070;2024-02-26T05:33:12;98107.53;;;20.65;40.25
74343;BME280;62767;50.300;8.070;2024-02-26T05:35:37;98109.16;;;20.60;40.28
74343;BME280;62767;50.300;8.070;2024-02-26T05:38:03;98114.00;;;20.56;40.14
74343;BME280;62767;50.300;8.070;2024-02-26T05:40:29;98112.56;;;20.53;40.04
74343;BME280;62767;50.300;8.070;2024-02-26T05:42:55;98112.34;;;20.48;40.07
74343;BME280;62767;50.300;8.070;2024-02-26T05:45:21;98118.00;;;20.45;40.04
74343;BME280;62767;50.300;8.070;2024-02-26T05:47:47;98122.47;;;20.38;40.43
74343;BME280;62767;50.300;8.070;2024-02-26T05:50:13;98127.94;;;20.37;40.27
74343;BME280;62767;50.300;8.070;2024-02-26T05:52:40;98126.84;;;20.31;40.36
74343;BME280;62767;50.300;8.070;2024-02-26T05:55:06;98122.75;;;20.29;40.17
74343;BME280;62767;50.300;8.070;2024-02-26T05:57:33;98127.81;;;20.24;40.35
74343;BME280;62767;50.300;8.070;2024-02-26T05:59:59;98130.44;;;20.24;40.30
74343;BME280;62767;50.300;8.070;2024-02-26T06:02:36;98137.31;;;20.18;40.43
74343;BME280;62767;50.300;8.070;2024-02-26T06:05:02;98135.84;;;20.09;40.61
74343;BME280;62767;50.300;8.070;2024-02-26T06:07:28;98133.81;;;20.11;40.33
74343;BME280;62767;50.300;8.070;2024-02-26T06:09:54;98140.25;;;20.02;40.60
74343;BME280;62767;50.300;8.070;2024-02-26T06:12:19;98140.63;;;19.99;40.72
74343;BME280;62767;50.300;8.070;2024-02-26T06:14:45;98136.09;;;19.93;40.76
74343;BME280;62767;50.300;8.070;2024-02-26T06:17:10;98147.69;;;19.92;40.76
74343;BME280;62767;50.300;8.070;2024-02-26T06:19:35;98151.91;;;19.86;40.80
74343;BME280;62767;50.300;8.070;2024-02-26T06:22:01;98163.03;;;19.82;40.79
74343;BME280;62767;50.300;8.070;2024-02-26T06:24:26;98157.06;;;19.73;41.00
74343;BME280;62767;50.300;8.070;2024-02-26T06:26:52;98157.72;;;19.75;40.88
74343;BME280;62767;50.300;8.070;2024-02-26T06:29:17;98161.97;;;19.76;40.78
74343;BME280;62767;50.300;8.070;2024-02-26T06:31:43;98161.34;;;19.74;40.84
74343;BME280;62767;50.300;8.070;2024-02-26T06:34:08;98169.03;;;19.69;40.85
74343;BME280;62767;50.300;8.070;2024-02-26T06:36:34;98176.13;;;19.68;40.82
74343;BME280;62767;50.300;8.070;2024-02-26T06:39:00;98178.94;;;19.67;40.64
74343;BME280;62767;50.300;8.070;2024-02-26T06:41:26;98179.31;;;19.64;40.79
74343;BME280;62767;50.300;8.070;2024-02-26T06:43:53;98187.78;;;19.59;40.81
74343;BME280;62767;50.300;8.070;2024-02-26T06:46:19;98184.09;;;19.54;40.96
74343;BME280;62767;50.300;8.070;2024-02-26T06:48:45;98189.75;;;19.51;40.84
74343;BME280;62767;50.300;8.070;2024-02-26T06:51:10;98195.94;;;19.43;40.95
74343;BME280;62767;50.300;8.070;2024-02-26T06:53:35;98195.66;;;19.38;41.13
74343;BME280;62767;50.300;8.070;2024-02-26T06:56:01;98201.69;;;19.32;41.20
74343;BME280;62767;50.300;8.070;2024-02-26T06:58:26;98202.59;;;19.24;41.43
74343;BME280;62767;50.300;8.070;2024-02-26T07:00:52;98202.16;;;19.21;41.42
74343;BME280;62767;50.300;8.070;2024-02-26T07:03:17;98206.19;;;19.17;41.50
74343;BME280;62767;50.300;8.070;2024-02-26T07:05:43;98204.91;;;19.13;41.54
74343;BME280;62767;50.300;8.070;2024-02-26T07:08:10;98215.00;;;19.09;41.54
74343;BME280;62767;50.300;8.070;2024-02-26T07:10:35;98211.72;;;19.07;41.62
74343;BME280;62767;50.300;8.070;2024-02-26T07:13:01;98216.38;;;19.05;41.60
74343;BME280;62767;50.300;8.070;2024-02-26T07:15:26;98220.84;;;19.05;41.60
74343;BME280;62767;50.300;8.070;2024-02-26T07:17:52;98222.84;;;19.03;41.70
74343;BME280;62767;50.300;8.070;2024-02-26T07:20:17;98218.75;;;19.00;41.63
74343;BME280;62767;50.300;8.070;2024-02-26T07:22:43;98228.66;;;18.98;41.69
74343;BME280;62767;50.300;8.070;2024-02-26T07:25:09;98227.84;;;18.98;41.68
74343;BME280;62767;50.300;8.070;2024-02-26T07:27:41;98224.56;;;18.96;41.75
74343;BME280;62767;50.300;8.070;2024-02-26T07:30:07;98227.41;;;18.94;41.72
74343;BME280;62767;50.300;8.070;2024-02-26T07:32:34;98234.66;;;18.92;41.67
74343;BME280;62767;50.300;8.070;2024-02-26T07:35:00;98235.66;;;18.91;41.68
74343;BME280;62767;50.300;8.070;2024-02-26T07:37:25;98237.66;;;18.89;41.69
74343;BME280;62767;50.300;8.070;2024-02-26T07:39:50;98233.56;;;18.86;41.82
74343;BME280;62767;50.300;8.070;2024-02-26T07:42:16;98244.13;;;18.86;41.79
74343;BME280;62767;50.300;8.070;2024-02-26T07:44:41;98245.13;;;18.85;41.94
74343;BME280;62767;50.300;8.070;2024-02-26T07:47:09;98234.94;;;18.82;41.87
74343;BME280;62767;50.300;8.070;2024-02-26T07:49:34;98243.03;;;18.81;41.77
74343;BME280;62767;50.300;8.070;2024-02-26T07:52:00;98241.38;;;18.80;41.79
74343;BME280;62767;50.300;8.070;2024-02-26T07:54:25;98239.75;;;18.79;41.83
74343;BME280;62767;50.300;8.070;2024-02-26T07:56:51;98245.00;;;18.79;41.78
74343;BME280;62767;50.300;8.070;2024-02-26T07:59:16;98249.66;;;18.77;41.70
74343;BME280;62767;50.300;8.070;2024-02-26T08:01:42;98241.94;;;18.75;41.80
74343;BME280;62767;50.300;8.070;2024-02-26T08:04:08;98247.22;;;18.75;41.68
74343;BME280;62767;50.300;8.070;2024-02-26T08:06:34;98250.84;;;18.74;41.87
74343;BME280;62767;50.300;8.070;2024-02-26T08:08:59;98244.75;;;18.74;41.83
74343;BME280;62767;50.300;8.070;2024-02-26T08:11:25;98257.09;;;18.73;41.85
74343;BME280;62767;50.300;8.070;2024-02-26T08:13:50;98258.09;;;18.72;41.88
74343;BME280;62767;50.300;8.070;2024-02-26T08:16:16;98265.19;;;18.72;41.80
74343;BME280;62767;50.300;8.070;2024-02-26T08:18:41;98269.84;;;18.70;41.64
74343;BME280;62767;50.300;8.070;2024-02-26T08:21:07;98272.47;;;18.70;41.81
74343;BME280;62767;50.300;8.070;2024-02-26T08:23:33;98270.81;;;18.69;41.87
74343;BME280;62767;50.300;8.070;2024-02-26T08:25:59;98277.09;;;18.68;41.88
74343;BME280;62767;50.300;8.070;2024-02-26T08:28:24;98272.81;;;18.67;41.77
74343;BME280;62767;50.300;8.070;2024-02-26T08:30:50;98276.47;;;18.66;41.68
74343;BME280;62767;50.300;8.070;2024-02-26T08:33:15;98284.38;;;18.66;41.83
74343;BME280;62767;50.300;8.070;2024-02-26T08:35:41;98280.91;;;18.65;41.84
74343;BME280;62767;50.300;8.070;2024-02-26T08:38:06;98280.28;;;18.63;41.77
74343;BME280;62767;50.300;8.070;2024-02-26T08:40:32;98283.91;;;18.62;41.81
74343;BME280;62767;50.300;8.070;2024-02-26T08:42:57;98287.34;;;18.63;41.83
74343;BME280;62767;50.300;8.070;2024-02-26T08:45:23;98276.81;;;18.63;41.69
74343;BME280;62767;50.300;8.070;2024-02-26T08:47:49;98274.34;;;18.61;41.82
74343;BME280;62767;50.300;8.070;2024-02-26T08:50:15;98284.28;;;18.59;41.71
74343;BME280;62767;50.300;8.070;2024-02-26T08:52:40;98286.91;;;18.59;41.81
74343;BME280;62767;50.300;8.070;2024-02-26T08:55:06;98299.44;;;18.57;41.79
74343;BME280;62767;50.300;8.070;2024-02-26T08:57:34;98288.06;;;18.57;41.88
74343;BME280;62767;50.300;8.070;2024-02-26T09:00:00;98301.41;;;18.55;41.86
74343;BME280;62767;50.300;8.070;2024-02-26T09:02:26;98305.03;;;18.54;41.79
74343;BME280;62767;50.300;8.070;2024-02-26T09:04:52;98311.94;;;18.55;41.83
74343;BME280;62767;50.300;8.070;2024-02-26T09:07:20;98299.13;;;18.52;42.03
74343;BME280;62767;50.300;8.070;2024-02-26T09:09:46;98302.56;;;18.52;42.15
74343;BME280;62767;50.300;8.070;2024-02-26T09:12:11;98306.19;;;18.51;41.85
74343;BME280;62767;50.300;8.070;2024-02-26T09:14:37;98310.66;;;18.51;41.75
74343;BME280;62767;50.300;8.070;2024-02-26T09:17:03;98313.44;;;18.49;41.82
74343;BME280;62767;50.300;8.070;2024-02-26T09:19:28;98311.63;;;18.50;41.78
74343;BME280;62767;50.300;8.070;2024-02-26T09:21:54;98307.34;;;18.49;41.74
74343;BME280;62767;50.300;8.070;2024-02-26T09:24:23;98300.47;;;18.48;41.84
74343;BME280;62767;50.300;8.070;2024-02-26T09:26:49;98302.28;;;18.47;41.73
74343;BME280;62767;50.300;8.070;2024-02-26T09:29:14;98291.75;;;18.47;41.81
74343;BME280;62767;50.300;8.070;2024-02-26T09:31:40;98289.28;;;18.46;41.52
74343;BME280;62767;50.300;8.070;2024-02-26T09:34:07;98298.00;;;18.46;41.70
74343;BME280;62767;50.300;8.070;2024-02-26T09:36:33;98310.53;;;18.44;41.85
74343;BME280;62767;50.300;8.070;2024-02-26T09:38:59;98313.16;;;18.44;41.82
74343;BME280;62767;50.300;8.070;2024-02-26T09:41:27;98312.34;;;18.44;41.82
74343;BME280;62767;50.300;8.070;2024-02-26T09:43:56;98319.41;;;18.43;41.79
74343;BME280;62767;50.300;8.070;2024-02-26T09:46:21;98329.13;;;18.43;41.86
74343;BME280;62767;50.300;8.070;2024-02-26T09:48:47;98330.16;;;18.42;41.78
74343;BME280;62767;50.300;8.070;2024-02-26T09:51:14;98330.16;;;18.42;41.80
74343;BME280;62767;50.300;8.070;2024-02-26T09:53:39;98336.41;;;18.41;41.85
74343;BME280;62767;50.300;8.070;2024-02-26T09:56:08;98336.59;;;18.39;41.82
74343;BME280;62767;50.300;8.070;2024-02-26T09:58:34;98329.69;;;18.38;41.75
74343;BME280;62767;50.300;8.070;2024-02-26T10:01:02;98335.94;;;18.37;41.78
74343;BME280;62767;50.300;8.070;2024-02-26T10:03:31;98329.06;;;18.36;41.78
74343;BME280;62767;50.300;8.070;2024-02-26T10:05:59;98333.66;;;18.34;41.85
74343;BME280;62767;50.300;8.070;2024-02-26T10:08:28;98338.94;;;18.34;41.85
74343;BME280;62767;50.300;8.070;2024-02-26T10:10:54;98339.75;;;18.35;41.83
74343;BME280;62767;50.300;8.070;2024-02-26T10:13:19;98347.81;;;18.33;41.81
74343;BME280;62767;50.300;8.070;2024-02-26T10:15:45;98354.91;;;18.33;41.79
74343;BME280;62767;50.300;8.070;2024-02-26T10:18:11;98350.63;;;18.32;42.00
74343;BME280;62767;50.300;8.070;2024-02-26T10:20:36;98351.66;;;18.31;41.83
74343;BME280;62767;50.300;8.070;2024-02-26T10:23:03;98349.00;;;18.31;41.75
74343;BME280;62767;50.300;8.070;2024-02-26T10:25:30;98354.28;;;18.31;41.79
74343;BME280;62767;50.300;8.070;2024-02-26T10:28:00;98362.19;;;18.31;41.89
74343;BME280;62767;50.300;8.070;2024-02-26T10:30:29;98359.56;;;18.31;41.93
74343;BME280;62767;50.300;8.070;2024-02-26T10:32:56;98357.09;;;18.29;41.76
74343;BME280;62767;50.300;8.070;2024-02-26T10:35:21;98358.91;;;18.29;41.78
74343;BME280;62767;50.300;8.070;2024-02-26T10:37:48;98368.59;;;18.28;41.85
74343;BME280;62767;50.300;8.070;2024-02-26T10:40:14;98360.06;;;18.26;41.79
74343;BME280;62767;50.300;8.070;2024-02-26T10:42:42;98365.31;;;18.26;41.80
74343;BME280;62767;50.300;8.070;2024-02-26T10:45:09;98370.78;;;18.25;41.88
74343;BME280;62767;50.300;8.070;2024-02-26T10:47:35;98378.69;;;18.25;41.94
74343;BME280;62767;50.300;8.070;2024-02-26T10:50:05;98371.78;;;18.24;41.85
74343;BME280;62767;50.300;8.070;2024-02-26T10:52:33;98373.59;;;18.23;41.86
74343;BME280;62767;50.300;8.070;2024-02-26T10:55:03;98377.19;;;18.22;41.78
74343;BME280;62767;50.300;8.070;2024-02-26T10:57:33;98384.28;;;18.22;41.85
74343;BME280;62767;50.300;8.070;2024-02-26T11:00:00;98380.00;;;18.21;41.86
74343;BME280;62767;50.300;8.070;2024-02-26T11:02:27;98382.63;;;18.21;41.79
74343;BME280;62767;50.300;8.070;2024-02-26T11:04:53;98389.72;;;18.20;41.84
74343;BME280;62767;50.300;8.070;2024-02-26T11:07:20;98386.09;;;18.21;41.76
74343;BME280;62767;50.300;8.070;2024-02-26T11:09:46;98396.81;;;18.20;41.75
74343;BME280;62767;50.300;8.070;2024-02-26T11:12:18;98405.72;;;18.19;41.86
74343;BME280;62767;50.300;8.070;2024-02-26T11:14:46;98400.44;;;18.19;41.67
74343;BME280;62767;50.300;8.070;2024-02-26T11:17:12;98397.81;;;18.19;41.78
74343;BME280;62767;50.300;8.070;2024-02-26T11:19:41;98394.53;;;18.17;41.78
74343;BME280;62767;50.300;8.070;2024-02-26T11:22:06;98397.16;;;18.17;41.80
74343;BME280;62767;50.300;8.070;2024-02-26T11:24:32;98401.59;;;18.16;41.88
74343;BME280;62767;50.300;8.070;2024-02-26T11:27:01;98397.31;;;18.15;41.77
74343;BME280;62767;50.300;8.070;2024-02-26T11:29:32;98400.78;;;18.16;41.81
74343;BME280;62767;50.300;8.070;2024-02-26T11:31:59;98401.75;;;18.15;41.75
74343;BME280;62767;50.300;8.070;2024-02-26T11:34:25;98401.75;;;18.15;41.74
74343;BME280;62767;50.300;8.070;2024-02-26T11:36:52;98407.84;;;18.15;41.92
74343;BME280;62767;50.300;8.070;2024-02-26T11:39:18;98407.22;;;18.13;41.78
74343;BME280;62767;50.300;8.070;2024-02-26T11:41:43;98404.59;;;18.13;41.93
74343;BME280;62767;50.300;8.070;2024-02-26T11:44:09;98401.13;;;18.13;41.79
74343;BME280;62767;50.300;8.070;2024-02-26T11:46:39;98401.13;;;18.13;41.69
74343;BME280;62767;50.300;8.070;2024-02-26T11:51:53;98408.22;;;18.12;41.85
74343;BME280;62767;50.300;8.070;2024-02-26T11:54:45;98403.94;;;18.11;41.79
74343;BME280;62767;50.300;8.070;2024-02-26T11:59:49;98408.38;;;18.10;41.82
74343;BME280;62767;50.300;8.070;2024-02-26T12:05:00;98411.84;;;18.11;41.64
74343;BME280;62767;50.300;8.070;2024-02-26T12:07:25;98411.00;;;18.10;41.73
74343;BME280;62767;50.300;8.070;2024-02-26T12:09:51;98410.19;;;18.10;41.79
74343;BME280;62767;50.300;8.070;2024-02-26T12:12:21;98405.91;;;18.09;41.68
74343;BME280;62767;50.300;8.070;2024-02-26T12:14:55;98411.00;;;18.10;41.83
74343;BME280;62767;50.300;8.070;2024-02-26T12:17:25;98414.63;;;18.09;41.78
74343;BME280;62767;50.300;8.070;2024-02-26T12:19:51;98418.91;;;18.10;41.72
74343;BME280;62767;50.300;8.070;2024-02-26T12:22:19;98424.16;;;18.10;41.77
74343;BME280;62767;50.300;8.070;2024-02-26T12:24:45;98419.91;;;18.09;41.78
74343;BME280;62767;50.300;8.070;2024-02-26T12:27:11;98417.25;;;18.09;41.91
74343;BME280;62767;50.300;8.070;2024-02-26T12:29:36;98425.16;;;18.09;41.74
74343;BME280;62767;50.300;8.070;2024-02-26T12:32:04;98426.97;;;18.09;41.77
74343;BME280;62767;50.300;8.070;2024-02-26T12:34:30;98432.22;;;18.09;41.77
74343;BME280;62767;50.300;8.070;2024-02-26T12:36:56;98433.88;;;18.10;41.76
74343;BME280;62767;50.300;8.070;2024-02-26T12:39:22;98432.44;;;18.07;41.69
74343;BME280;62767;50.300;8.070;2024-02-26T12:41:47;98430.78;;;18.06;41.76
74343;BME280;62767;50.300;8.070;2024-02-26T12:44:24;98435.88;;;18.08;41.77
74343;BME280;62767;50.300;8.070;2024-02-26T12:46:50;98443.78;;;18.08;41.77
74343;BME280;62767;50.300;8.070;2024-02-26T12:49:16;98435.06;;;18.07;41.65
74343;BME280;62767;50.300;8.070;2024-02-26T12:51:44;98430.78;;;18.06;41.79
74343;BME280;62767;50.300;8.070;2024-02-26T12:54:09;98435.88;;;18.08;41.59
74343;BME280;62767;50.300;8.070;2024-02-26T12:56:35;98435.06;;;18.07;41.73
74343;BME280;62767;50.300;8.070;2024-02-26T12:59:02;98441.47;;;18.05;41.66
74343;BME280;62767;50.300;8.070;2024-02-26T13:01:28;98445.09;;;18.04;41.80
74343;BME280;62767;50.300;8.070;2024-02-26T13:03:54;98436.38;;;18.03;41.91